Time;durP1;ratioP1;P1;durP2;ratioP2;P2;SDS_P1;SDS_P2;PMS_P1;PMS_P2;Temp;Humidity;BMP_temperature;BMP_pressure;BME280_temperature;BME280_humidity;BME280_pressure;Samples;Min_cycle;Max_cycle;Signal;HPM_P1;HPM_P2
2021/05/15 00:00:10;;;;;;;25.02;20.10;;;7.40;95.00;;;;;;5130191;27;20043;-57
2021/05/15 00:02:37;;;;;;;25.23;18.60;;;7.40;95.00;;;;;;5127504;27;20126;-60
2021/05/15 00:05:06;;;;;;;25.00;19.58;;;7.40;94.90;;;;;;5130184;27;20051;-58
2021/05/15 00:07:33;;;;;;;24.50;18.90;;;7.40;94.90;;;;;;5130112;27;20043;-59
2021/05/15 00:09:59;;;;;;;26.60;19.20;;;7.30;94.80;;;;;;5130255;27;20047;-60
2021/05/15 00:12:29;;;;;;;28.77;18.98;;;7.30;94.90;;;;;;5133022;27;20046;-58
2021/05/15 00:14:59;;;;;;;28.88;20.52;;;7.40;94.70;;;;;;5130112;27;20047;-61
2021/05/15 00:17:25;;;;;;;29.48;21.20;;;7.50;95.00;;;;;;5129615;27;20039;-60
2021/05/15 00:19:56;;;;;;;26.88;21.08;;;7.50;94.80;;;;;;5130357;27;20495;-60
2021/05/15 00:22:22;;;;;;;27.08;21.00;;;7.50;94.90;;;;;;5129283;27;20142;-61
2021/05/15 00:24:50;;;;;;;29.38;21.25;;;7.50;95.00;;;;;;5127166;27;20517;-60
2021/05/15 00:27:17;;;;;;;26.80;20.45;;;7.50;95.00;;;;;;5129714;27;20800;-61
2021/05/15 00:29:43;;;;;;;25.92;20.70;;;7.50;95.10;;;;;;5129602;27;20084;-54
2021/05/15 00:32:11;;;;;;;25.60;19.33;;;7.50;95.10;;;;;;5115734;28;20116;-60
2021/05/15 00:34:37;;;;;;;23.48;17.90;;;7.50;95.00;;;;;;5128590;27;20055;-58
2021/05/15 00:37:03;;;;;;;23.73;18.75;;;7.50;95.00;;;;;;5129669;27;20071;-59
2021/05/15 00:39:33;;;;;;;23.63;17.60;;;7.40;95.10;;;;;;5129935;27;20051;-59
2021/05/15 00:42:00;;;;;;;25.98;20.10;;;7.40;95.30;;;;;;5130241;27;20047;-59
2021/05/15 00:46:52;;;;;;;23.60;18.13;;;7.20;95.00;;;;;;5130149;27;20053;-61
2021/05/15 00:49:21;;;;;;;26.35;18.33;;;7.10;95.10;;;;;;5130115;27;20383;-60
2021/05/15 00:51:48;;;;;;;25.23;19.08;;;7.00;95.20;;;;;;5129739;27;20085;-57
2021/05/15 00:54:14;;;;;;;26.35;19.50;;;7.00;95.60;;;;;;5129655;27;20039;-59
2021/05/15 00:56:43;;;;;;;27.42;19.00;;;6.90;96.10;;;;;;5111448;27;20473;-54
2021/05/15 00:59:14;;;;;;;29.15;20.75;;;6.90;96.20;;;;;;5109955;27;20471;-57
2021/05/15 01:01:42;;;;;;;24.63;18.60;;;6.90;96.10;;;;;;5132017;27;20095;-59
2021/05/15 01:04:10;;;;;;;28.67;20.25;;;6.90;95.80;;;;;;5128844;27;20043;-58
2021/05/15 01:06:38;;;;;;;29.90;19.95;;;6.90;96.00;;;;;;5126142;27;20130;-59
2021/05/15 01:09:05;;;;;;;22.83;19.42;;;6.90;95.60;;;;;;5129672;27;20073;-58
2021/05/15 01:11:34;;;;;;;23.73;18.30;;;6.90;95.30;;;;;;5128921;27;20058;-58
2021/05/15 01:14:02;;;;;;;26.60;20.88;;;6.80;95.30;;;;;;5128870;27;20050;-56
2021/05/15 01:16:28;;;;;;;27.25;20.80;;;6.80;95.80;;;;;;5128993;27;20127;-57
2021/05/15 01:18:54;;;;;;;27.85;21.30;;;6.80;96.10;;;;;;5128763;27;20494;-58
2021/05/15 01:21:21;;;;;;;32.72;19.38;;;6.80;96.10;;;;;;5111307;27;20047;-59
2021/05/15 01:23:49;;;;;;;28.33;20.65;;;6.70;95.90;;;;;;5128324;27;21738;-59
2021/05/15 01:26:15;;;;;;;26.30;20.27;;;6.70;95.70;;;;;;5128793;27;20582;-58
2021/05/15 01:28:42;;;;;;;26.58;19.25;;;6.80;95.80;;;;;;5128232;27;20538;-58
2021/05/15 01:31:09;;;;;;;32.72;22.50;;;6.70;95.60;;;;;;5127749;27;20516;-58
2021/05/15 01:33:37;;;;;;;26.40;20.70;;;6.70;96.00;;;;;;5128229;27;20039;-57
2021/05/15 01:36:05;;;;;;;30.98;21.08;;;6.70;96.30;;;;;;5127129;27;20039;-56
2021/05/15 01:38:32;;;;;;;28.02;19.33;;;6.70;96.10;;;;;;5127940;27;20624;-57
2021/05/15 01:41:06;;;;;;;27.45;20.80;;;6.70;96.20;;;;;;5110859;27;20126;-58
2021/05/15 01:43:36;;;;;;;29.27;21.00;;;6.70;96.20;;;;;;5128115;27;20479;-55
2021/05/15 01:46:04;;;;;;;26.90;20.30;;;6.70;96.30;;;;;;5128312;27;20047;-58
2021/05/15 01:48:32;;;;;;;27.88;19.25;;;6.70;96.10;;;;;;5129239;27;20035;-60
2021/05/15 01:51:13;;;;;;;27.63;19.83;;;6.60;95.90;;;;;;5127820;27;20100;-58
2021/05/15 01:53:48;;;;;;;24.20;18.58;;;6.60;96.00;;;;;;5128149;27;20092;-59
2021/05/15 01:56:18;;;;;;;24.27;19.00;;;6.60;95.90;;;;;;5128488;27;20506;-59
2021/05/15 01:58:44;;;;;;;25.75;17.83;;;6.60;96.00;;;;;;5127963;27;20039;-58
2021/05/15 02:01:16;;;;;;;24.92;19.17;;;6.60;96.00;;;;;;5135648;27;20856;-58
2021/05/15 02:03:44;;;;;;;25.73;18.85;;;6.60;96.00;;;;;;5125783;27;20050;-60
2021/05/15 02:06:10;;;;;;;24.95;18.45;;;6.60;96.00;;;;;;5127584;27;20544;-58
2021/05/15 02:08:36;;;;;;;25.92;20.02;;;6.70;96.10;;;;;;5128119;27;20039;-58
2021/05/15 02:11:03;;;;;;;27.75;18.50;;;6.70;96.10;;;;;;5128354;27;20761;-59
2021/05/15 02:13:30;;;;;;;28.40;19.77;;;6.70;96.20;;;;;;5128464;27;20526;-58
2021/05/15 02:15:59;;;;;;;27.88;19.83;;;6.70;96.40;;;;;;5127853;27;20138;-57
2021/05/15 02:18:27;;;;;;;24.05;18.30;;;6.70;96.30;;;;;;5127014;27;20062;-56
2021/05/15 02:20:57;;;;;;;22.25;16.95;;;6.60;96.30;;;;;;5127662;27;20046;-58
2021/05/15 02:23:24;;;;;;;24.30;18.65;;;6.50;96.10;;;;;;5128680;27;20050;-53
2021/05/15 02:25:53;;;;;;;23.98;18.65;;;6.60;96.40;;;;;;5127514;27;20047;-56
2021/05/15 02:28:19;;;;;;;26.65;17.98;;;6.60;96.40;;;;;;5127616;27;20047;-57
2021/05/15 02:30:46;;;;;;;28.00;17.75;;;6.60;96.40;;;;;;5127741;27;20069;-58
2021/05/15 02:33:12;;;;;;;24.25;17.30;;;6.60;96.40;;;;;;5127751;27;20154;-60
2021/05/15 02:35:39;;;;;;;22.88;17.00;;;6.60;96.40;;;;;;5127936;27;20051;-60
2021/05/15 02:38:09;;;;;;;24.08;17.25;;;6.60;96.30;;;;;;5127323;27;20414;-60
2021/05/15 02:40:35;;;;;;;21.45;15.18;;;6.60;96.10;;;;;;5127536;27;20133;-58
2021/05/15 02:43:06;;;;;;;19.55;15.57;;;6.60;96.10;;;;;;5127957;28;20058;-59
2021/05/15 02:45:33;;;;;;;22.02;15.15;;;6.60;96.00;;;;;;5127147;27;20053;-57
2021/05/15 02:48:00;;;;;;;20.98;15.70;;;6.50;96.20;;;;;;5127476;28;20047;-60
2021/05/15 02:50:26;;;;;;;20.70;14.75;;;6.60;96.10;;;;;;5127033;28;20043;-59
2021/05/15 02:52:53;;;;;;;20.50;14.20;;;6.50;95.90;;;;;;5127408;28;20055;-59
2021/05/15 02:55:21;;;;;;;18.77;15.43;;;6.50;95.80;;;;;;5127210;28;20050;-60
2021/05/15 02:57:48;;;;;;;21.88;16.05;;;6.50;96.00;;;;;;5132674;27;20070;-59
2021/05/15 03:00:18;;;;;;;22.25;16.42;;;6.60;96.20;;;;;;5109766;28;20039;-60
2021/05/15 03:02:44;;;;;;;22.17;16.05;;;6.70;96.30;;;;;;5108713;28;20555;-60
2021/05/15 03:05:13;;;;;;;25.50;17.17;;;6.70;96.40;;;;;;5127193;28;20099;-59
2021/05/15 03:07:41;;;;;;;22.20;17.35;;;6.80;96.20;;;;;;5126137;28;20509;-60
2021/05/15 03:10:09;;;;;;;25.30;16.63;;;6.90;96.40;;;;;;5125920;28;20466;-58
2021/05/15 03:12:36;;;;;;;23.00;15.88;;;7.00;96.40;;;;;;5107402;28;20051;-58
2021/05/15 03:15:06;;;;;;;24.48;17.42;;;7.10;96.30;;;;;;5127577;28;20051;-58
2021/05/15 03:17:32;;;;;;;24.95;16.83;;;7.20;96.30;;;;;;5124498;28;20051;-57
2021/05/15 03:19:59;;;;;;;22.65;16.02;;;7.20;96.30;;;;;;5126840;28;20071;-59
2021/05/15 03:22:25;;;;;;;24.17;17.55;;;7.20;96.20;;;;;;5128683;27;20039;-58
2021/05/15 03:24:51;;;;;;;23.85;17.45;;;7.20;96.00;;;;;;5127225;28;20055;-61
2021/05/15 03:27:19;;;;;;;29.02;18.23;;;7.30;96.20;;;;;;5127121;28;20510;-58
2021/05/15 03:29:46;;;;;;;24.48;17.85;;;7.30;96.20;;;;;;5126590;28;20051;-60
2021/05/15 03:32:13;;;;;;;25.67;18.88;;;7.40;96.10;;;;;;5126803;28;20062;-60
2021/05/15 03:34:41;;;;;;;26.05;17.27;;;7.30;96.10;;;;;;5127377;28;20058;-61
2021/05/15 03:37:07;;;;;;;28.63;18.73;;;7.40;96.30;;;;;;5108018;28;20396;-59
2021/05/15 03:39:36;;;;;;;26.02;17.20;;;7.40;96.30;;;;;;5116130;27;20038;-59
2021/05/15 03:42:09;;;;;;;24.13;18.33;;;7.50;96.40;;;;;;5126718;28;20058;-58
2021/05/15 03:44:39;;;;;;;26.05;17.92;;;7.60;96.30;;;;;;5126801;28;20047;-62
2021/05/15 03:47:06;;;;;;;26.67;17.70;;;7.60;96.10;;;;;;5126367;28;20663;-60
2021/05/15 03:49:32;;;;;;;27.58;18.55;;;7.60;96.10;;;;;;5126689;28;20092;-59
2021/05/15 03:51:59;;;;;;;24.65;18.15;;;7.60;96.20;;;;;;5126882;28;20074;-59
2021/05/15 03:54:25;;;;;;;28.50;18.60;;;7.60;96.30;;;;;;5127992;27;20131;-62
2021/05/15 03:56:52;;;;;;;25.70;18.65;;;7.70;96.40;;;;;;5129007;27;20604;-62
2021/05/15 03:59:18;;;;;;;24.15;18.13;;;7.70;96.30;;;;;;5130617;27;20047;-60
2021/05/15 04:01:46;;;;;;;27.15;18.55;;;7.80;96.30;;;;;;5137346;27;20176;-59
2021/05/15 04:04:13;;;;;;;30.52;20.15;;;7.80;96.10;;;;;;5105137;27;20491;-61
2021/05/15 04:06:39;;;;;;;28.60;19.65;;;7.90;96.30;;;;;;5130316;27;20043;-61
2021/05/15 04:09:06;;;;;;;31.05;19.42;;;8.00;96.20;;;;;;5133283;27;20051;-59
2021/05/15 04:11:37;;;;;;;29.38;18.63;;;8.00;96.20;;;;;;5130204;27;20047;-59
2021/05/15 04:19:31;;;;;;;32.75;19.98;;;8.10;95.80;;;;;;5136343;27;20115;-60
2021/05/15 04:21:57;;;;;;;28.70;18.70;;;8.20;96.00;;;;;;5131864;27;20061;-60
2021/05/15 04:24:26;;;;;;;28.52;18.20;;;8.10;96.00;;;;;;5129754;27;20061;-61
2021/05/15 04:26:54;;;;;;;26.75;17.83;;;8.20;95.90;;;;;;5129820;27;20039;-62
2021/05/15 04:29:21;;;;;;;27.98;19.90;;;8.20;95.80;;;;;;5130125;27;20047;-60
2021/05/15 04:31:48;;;;;;;29.75;20.42;;;8.20;96.00;;;;;;5130978;27;20043;-58
2021/05/15 04:34:15;;;;;;;28.90;20.38;;;8.20;95.80;;;;;;5129795;27;20074;-60
2021/05/15 04:36:41;;;;;;;29.83;20.27;;;8.10;96.10;;;;;;5130108;27;20047;-60
2021/05/15 04:39:10;;;;;;;29.30;19.67;;;8.20;96.00;;;;;;5135203;27;20047;-59
2021/05/15 04:41:37;;;;;;;29.00;20.55;;;8.20;96.10;;;;;;5111163;27;20676;-59
2021/05/15 04:44:03;;;;;;;34.28;20.63;;;8.20;96.00;;;;;;5129822;27;20039;-56
2021/05/15 04:46:30;;;;;;;29.17;20.27;;;8.20;96.00;;;;;;5128435;27;20043;-61
2021/05/15 04:48:56;;;;;;;28.58;19.58;;;8.30;96.20;;;;;;5133055;27;20059;-60
2021/05/15 04:51:22;;;;;;;30.48;20.33;;;8.30;96.00;;;;;;5129649;27;20039;-56
2021/05/15 04:53:49;;;;;;;26.42;19.30;;;8.30;95.90;;;;;;5135746;27;20554;-61
2021/05/15 04:56:15;;;;;;;27.45;19.45;;;8.30;95.90;;;;;;5129836;27;20048;-61
2021/05/15 04:58:42;;;;;;;26.92;19.13;;;8.30;96.00;;;;;;5126920;27;20043;-62
2021/05/15 05:01:08;;;;;;;31.13;21.20;;;8.40;96.00;;;;;;5129117;27;20123;-59
2021/05/15 05:03:35;;;;;;;30.73;21.10;;;8.50;96.00;;;;;;5134696;27;20038;-60
2021/05/15 05:06:02;;;;;;;28.67;20.95;;;8.50;95.80;;;;;;5129280;27;20429;-58
2021/05/15 05:08:31;;;;;;;29.42;18.83;;;8.60;95.80;;;;;;5128985;27;20634;-59
2021/05/15 05:10:57;;;;;;;28.48;19.95;;;8.60;95.90;;;;;;5128829;27;20145;-61
2021/05/15 05:13:23;;;;;;;29.38;18.50;;;8.60;95.90;;;;;;5130163;27;20049;-55
2021/05/15 05:15:49;;;;;;;29.75;20.27;;;8.70;95.80;;;;;;5127197;27;20078;-59
2021/05/15 05:18:16;;;;;;;27.67;19.15;;;8.70;95.90;;;;;;5110196;27;20119;-59
2021/05/15 05:20:42;;;;;;;26.67;20.05;;;8.70;95.70;;;;;;5129222;27;20043;-62
2021/05/15 05:23:09;;;;;;;30.65;21.35;;;8.70;95.70;;;;;;5130756;27;20047;-60
2021/05/15 05:25:35;;;;;;;29.75;20.52;;;8.80;95.60;;;;;;5133604;27;20035;-59
2021/05/15 05:28:04;;;;;;;29.50;20.05;;;8.80;95.60;;;;;;5129235;27;20058;-59
2021/05/15 05:30:32;;;;;;;28.08;18.77;;;8.80;95.60;;;;;;5129571;27;20043;-61
2021/05/15 05:33:00;;;;;;;25.95;19.27;;;8.80;95.60;;;;;;5128836;27;20043;-58
2021/05/15 05:35:26;;;;;;;25.05;18.30;;;8.80;95.50;;;;;;5128456;27;20181;-61
2021/05/15 05:37:53;;;;;;;24.63;18.10;;;8.80;95.50;;;;;;5128784;27;20158;-58
2021/05/15 05:40:19;;;;;;;25.60;18.65;;;8.80;95.40;;;;;;5128363;27;20055;-59
2021/05/15 05:42:45;;;;;;;29.00;19.48;;;8.80;95.40;;;;;;5127372;27;20753;-61
2021/05/15 05:45:16;;;;;;;27.48;19.60;;;8.90;95.30;;;;;;5128270;27;20499;-61
2021/05/15 05:47:43;;;;;;;26.98;19.17;;;8.90;95.30;;;;;;5128179;27;20043;-60
2021/05/15 05:50:11;;;;;;;27.27;18.10;;;9.00;95.20;;;;;;5128518;27;20047;-56
2021/05/15 05:52:38;;;;;;;24.23;19.38;;;9.10;95.20;;;;;;5128052;27;20043;-59
2021/05/15 05:55:06;;;;;;;25.63;18.25;;;9.20;95.00;;;;;;5124486;27;20046;-58
2021/05/15 05:57:32;;;;;;;24.00;18.88;;;9.30;94.80;;;;;;5130127;27;20041;-59
2021/05/15 05:59:58;;;;;;;25.27;18.80;;;9.40;94.80;;;;;;5129445;27;20059;-56
2021/05/15 06:02:26;;;;;;;24.17;18.17;;;9.40;94.60;;;;;;5127219;27;20043;-58
2021/05/15 06:04:52;;;;;;;27.50;19.80;;;9.60;94.60;;;;;;5127496;27;20047;-59
2021/05/15 06:07:20;;;;;;;25.77;17.75;;;9.50;94.40;;;;;;5127319;27;20133;-49
2021/05/15 06:09:49;;;;;;;30.50;18.27;;;9.60;94.30;;;;;;5128583;27;20051;-58
2021/05/15 06:12:15;;;;;;;29.20;19.35;;;9.70;94.30;;;;;;5097807;27;20518;-59
2021/05/15 06:14:41;;;;;;;28.42;19.33;;;9.60;94.10;;;;;;5126504;27;20043;-59
2021/05/15 06:17:07;;;;;;;24.77;18.15;;;9.70;94.10;;;;;;5127243;27;20074;-59
2021/05/15 06:19:34;;;;;;;26.65;19.20;;;9.80;94.00;;;;;;5128597;27;20485;-52
2021/05/15 06:22:00;;;;;;;24.60;17.95;;;9.70;94.10;;;;;;5128591;27;20467;-60
2021/05/15 06:24:26;;;;;;;24.52;17.65;;;9.70;94.00;;;;;;5126166;27;20050;-58
2021/05/15 06:26:52;;;;;;;25.80;17.00;;;9.80;93.90;;;;;;5107921;27;20109;-55
2021/05/15 06:29:19;;;;;;;27.08;19.40;;;9.80;93.90;;;;;;5126463;27;20047;-57
2021/05/15 06:31:45;;;;;;;27.52;19.23;;;9.80;93.90;;;;;;5127605;27;20043;-59
2021/05/15 06:34:11;;;;;;;27.00;17.90;;;9.80;93.90;;;;;;5127099;27;20055;-57
2021/05/15 06:36:38;;;;;;;23.88;18.02;;;9.90;93.90;;;;;;5126971;27;20050;-56
2021/05/15 06:39:04;;;;;;;28.65;19.42;;;9.90;93.80;;;;;;5130667;27;20111;-57
2021/05/15 06:41:31;;;;;;;22.33;16.02;;;9.90;93.80;;;;;;5126342;27;20047;-58
2021/05/15 06:43:57;;;;;;;28.17;18.90;;;9.80;93.80;;;;;;5131408;27;20084;-59
2021/05/15 06:46:23;;;;;;;26.15;19.08;;;9.90;93.80;;;;;;5126853;27;20058;-59
2021/05/15 06:48:49;;;;;;;25.67;18.17;;;10.10;93.80;;;;;;5127726;28;20108;-57
2021/05/15 06:51:16;;;;;;;28.75;18.15;;;10.00;93.70;;;;;;5127025;28;20055;-57
2021/05/15 06:53:42;;;;;;;28.65;19.65;;;10.00;93.60;;;;;;5127185;28;20051;-59
2021/05/15 06:56:08;;;;;;;26.40;18.60;;;10.10;93.70;;;;;;5127149;28;20543;-54
2021/05/15 06:58:36;;;;;;;28.70;20.05;;;10.20;93.80;;;;;;5129796;27;20035;-58
2021/05/15 07:01:03;;;;;;;22.92;17.58;;;10.30;93.60;;;;;;5128666;27;20745;-56
2021/05/15 07:03:29;;;;;;;27.83;18.73;;;10.30;93.40;;;;;;5126623;28;20058;-59
2021/05/15 07:05:56;;;;;;;27.25;18.98;;;10.50;93.20;;;;;;5125677;28;20047;-58
2021/05/15 07:08:22;;;;;;;26.90;18.10;;;10.60;93.00;;;;;;5126236;28;20224;-55
2021/05/15 07:10:48;;;;;;;65.55;50.15;;;10.60;93.00;;;;;;5123362;27;20745;-60
2021/05/15 07:13:14;;;;;;;46.38;37.42;;;10.70;92.90;;;;;;5126492;27;20043;-57
2021/05/15 07:15:40;;;;;;;32.03;24.02;;;10.80;92.70;;;;;;5130882;27;20039;-59
2021/05/15 07:18:06;;;;;;;46.50;33.78;;;10.70;92.30;;;;;;5126698;28;20047;-56
2021/05/15 07:20:33;;;;;;;32.20;21.67;;;10.80;92.40;;;;;;5127366;28;20122;-58
2021/05/15 07:22:59;;;;;;;33.40;24.77;;;10.90;92.20;;;;;;5126889;28;20071;-58
2021/05/15 07:25:26;;;;;;;35.08;21.33;;;11.00;91.90;;;;;;5124824;28;20067;-58
2021/05/15 07:27:54;;;;;;;31.48;21.02;;;11.10;92.00;;;;;;5126272;28;20115;-60
2021/05/15 07:30:20;;;;;;;27.17;19.23;;;11.10;91.90;;;;;;5124723;27;21972;-59
2021/05/15 07:32:48;;;;;;;51.15;37.17;;;11.10;91.80;;;;;;5130574;27;20044;-59
2021/05/15 07:35:16;;;;;;;66.13;51.65;;;11.20;91.80;;;;;;5121133;27;20056;-60
2021/05/15 07:37:43;;;;;;;51.15;41.03;;;11.30;91.50;;;;;;5118380;27;21086;-57
2021/05/15 07:40:09;;;;;;;34.17;22.08;;;11.40;91.30;;;;;;5122195;27;20059;-56
2021/05/15 07:42:35;;;;;;;36.65;23.15;;;11.50;91.40;;;;;;5123949;27;20051;-60
2021/05/15 07:45:04;;;;;;;41.53;28.15;;;11.50;91.10;;;;;;5100999;27;20044;-55
2021/05/15 07:47:30;;;;;;;31.13;20.25;;;11.60;91.00;;;;;;5127265;27;20510;-60
2021/05/15 07:49:57;;;;;;;30.65;23.45;;;11.60;90.90;;;;;;5125625;27;20160;-55
2021/05/15 07:52:27;;;;;;;34.95;22.15;;;11.60;90.90;;;;;;5113466;27;20130;-57
2021/05/15 07:54:56;;;;;;;39.55;25.63;;;11.70;90.90;;;;;;5112932;27;20051;-56
2021/05/15 07:57:23;;;;;;;53.55;41.50;;;11.80;91.00;;;;;;5128819;27;20035;-55
2021/05/15 07:59:50;;;;;;;58.67;44.65;;;11.90;90.50;;;;;;5116591;27;20549;-57
2021/05/15 08:02:16;;;;;;;32.88;21.65;;;12.00;90.40;;;;;;5116962;27;20040;-57
2021/05/15 08:04:42;;;;;;;32.45;25.60;;;11.90;90.30;;;;;;5126041;27;20046;-60
2021/05/15 08:07:08;;;;;;;31.42;22.85;;;11.90;90.30;;;;;;5136952;27;20041;-56
2021/05/15 08:09:34;;;;;;;44.42;31.60;;;11.70;90.40;;;;;;5128765;27;20047;-58
2021/05/15 08:12:00;;;;;;;34.15;24.95;;;11.60;90.20;;;;;;5116306;27;20138;-57
2021/05/15 08:14:26;;;;;;;35.47;25.08;;;11.70;90.60;;;;;;5128095;27;20553;-59
2021/05/15 08:16:53;;;;;;;34.10;22.02;;;11.70;90.70;;;;;;5117288;27;20071;-58
2021/05/15 08:19:22;;;;;;;32.78;23.92;;;11.60;90.30;;;;;;5119406;27;20062;-58
2021/05/15 08:21:48;;;;;;;37.53;26.58;;;11.60;90.60;;;;;;5118580;27;20683;-60
2021/05/15 08:24:14;;;;;;;34.35;24.23;;;11.60;90.60;;;;;;5117453;27;20561;-56
2021/05/15 08:26:40;;;;;;;58.42;34.95;;;11.60;90.80;;;;;;5123976;27;20055;-57
2021/05/15 08:29:12;;;;;;;57.58;38.17;;;11.60;90.80;;;;;;5129855;27;20039;-58
2021/05/15 08:31:38;;;;;;;46.85;32.83;;;11.60;90.70;;;;;;5126417;27;20047;-52
2021/05/15 08:34:04;;;;;;;39.00;27.73;;;11.60;90.50;;;;;;5127304;27;20497;-60
2021/05/15 08:36:30;;;;;;;30.83;23.92;;;11.80;90.50;;;;;;5125283;27;20050;-57
2021/05/15 08:38:57;;;;;;;49.28;37.22;;;11.90;90.40;;;;;;5129355;27;20047;-58
2021/05/15 08:41:23;;;;;;;33.47;22.60;;;11.80;90.60;;;;;;5129966;27;20170;-57
2021/05/15 08:43:52;;;;;;;34.88;26.25;;;11.90;90.70;;;;;;5129323;27;20142;-58
2021/05/15 08:46:22;;;;;;;36.10;28.13;;;11.90;90.70;;;;;;5129132;27;20039;-56
2021/05/15 08:48:49;;;;;;;43.20;31.40;;;11.80;90.60;;;;;;5108116;27;20055;-55
2021/05/15 08:51:15;;;;;;;37.92;28.50;;;11.80;90.80;;;;;;5127800;27;20074;-55
2021/05/15 08:53:43;;;;;;;40.30;28.25;;;11.90;90.80;;;;;;5111590;27;20555;-55
2021/05/15 08:56:10;;;;;;;40.58;28.35;;;11.90;91.20;;;;;;5116561;27;20050;-59
2021/05/15 08:58:40;;;;;;;38.42;26.95;;;11.90;90.80;;;;;;5124279;27;20084;-55
2021/05/15 09:01:11;;;;;;;39.63;30.05;;;11.90;90.70;;;;;;5123880;27;20050;-59
2021/05/15 09:03:47;;;;;;;49.40;36.08;;;11.80;90.90;;;;;;5109301;27;20487;-59
2021/05/15 09:06:14;;;;;;;84.80;64.53;;;11.70;91.10;;;;;;5122239;27;20574;-59
2021/05/15 09:08:48;;;;;;;75.80;57.03;;;11.90;91.30;;;;;;5128292;27;20051;-59
2021/05/15 09:11:14;;;;;;;58.42;43.70;;;11.90;91.20;;;;;;5128782;27;20117;-59
2021/05/15 09:13:50;;;;;;;47.63;37.00;;;12.10;91.30;;;;;;5127755;27;20482;-60
2021/05/15 09:16:17;;;;;;;46.05;33.38;;;12.20;91.10;;;;;;5121800;27;20051;-60
2021/05/15 09:18:43;;;;;;;43.95;32.92;;;12.30;91.10;;;;;;5121281;27;20522;-60
2021/05/15 09:21:14;;;;;;;52.33;37.80;;;12.20;90.90;;;;;;5129125;27;20043;-58
2021/05/15 09:23:44;;;;;;;47.53;34.67;;;12.30;90.80;;;;;;5132594;27;20043;-58
2021/05/15 09:26:16;;;;;;;44.22;33.40;;;12.30;91.00;;;;;;5131450;27;20098;-60
2021/05/15 09:28:47;;;;;;;45.47;34.95;;;12.30;91.10;;;;;;5121209;27;20051;-61
2021/05/15 09:31:23;;;;;;;42.72;34.92;;;12.50;91.00;;;;;;5125598;27;20112;-55
2021/05/15 09:34:02;;;;;;;46.50;32.17;;;12.50;90.90;;;;;;5129485;27;20055;-55
2021/05/15 09:36:32;;;;;;;44.90;32.80;;;12.50;90.70;;;;;;5127280;27;20050;-55
2021/05/15 09:39:06;;;;;;;72.93;58.67;;;12.50;90.80;;;;;;5125166;27;20047;-56
2021/05/15 09:41:39;;;;;;;53.22;40.97;;;12.50;90.80;;;;;;5125921;27;20108;-60
2021/05/15 09:44:07;;;;;;;53.10;39.60;;;12.50;90.90;;;;;;5124789;27;20047;-58
2021/05/15 09:46:36;;;;;;;45.67;33.70;;;12.50;90.80;;;;;;5099996;27;20047;-60
2021/05/15 09:49:04;;;;;;;56.90;41.08;;;12.50;91.10;;;;;;5128009;27;20050;-59
2021/05/15 09:51:31;;;;;;;47.75;35.80;;;12.50;91.20;;;;;;5126985;27;20043;-60
2021/05/15 09:54:17;;;;;;;52.10;38.00;;;12.50;91.20;;;;;;5127955;27;20095;-55
2021/05/15 09:56:54;;;;;;;50.88;36.00;;;12.50;91.40;;;;;;5124352;27;20047;-60
2021/05/15 09:59:26;;;;;;;45.42;35.60;;;12.60;91.30;;;;;;5129690;27;20761;-60
2021/05/15 10:01:56;;;;;;;51.10;38.10;;;12.50;91.30;;;;;;5127108;27;20410;-58
2021/05/15 10:04:24;;;;;;;45.10;35.33;;;12.60;91.40;;;;;;5122705;27;20073;-58
2021/05/15 10:06:55;;;;;;;51.10;37.42;;;12.70;91.40;;;;;;5123936;27;20047;-59
2021/05/15 10:09:25;;;;;;;49.40;38.40;;;12.80;91.20;;;;;;5128563;27;20051;-60
2021/05/15 10:11:53;;;;;;;48.22;38.40;;;12.90;91.10;;;;;;5133370;27;20046;-61
2021/05/15 10:14:20;;;;;;;51.13;39.63;;;13.00;91.00;;;;;;5128147;27;20054;-58
2021/05/15 10:16:49;;;;;;;50.63;37.10;;;13.20;90.70;;;;;;5125861;27;20495;-60
2021/05/15 10:19:16;;;;;;;43.95;37.25;;;13.20;90.30;;;;;;5127944;27;20043;-60
2021/05/15 10:21:46;;;;;;;43.20;36.67;;;13.30;90.50;;;;;;5126863;27;20050;-61
2021/05/15 10:24:30;;;;;;;45.88;37.15;;;13.30;90.50;;;;;;5125715;27;20043;-61
2021/05/15 10:26:59;;;;;;;50.15;39.03;;;13.30;90.30;;;;;;5108443;27;20433;-61
2021/05/15 10:29:42;;;;;;;47.47;38.22;;;13.10;90.50;;;;;;5127453;27;20138;-60
2021/05/15 10:32:30;;;;;;;50.40;38.88;;;13.30;90.10;;;;;;5127995;27;20130;-56
2021/05/15 10:35:00;;;;;;;48.75;39.70;;;13.20;90.20;;;;;;5122023;27;20082;-61
2021/05/15 10:37:30;;;;;;;41.83;36.35;;;13.30;90.40;;;;;;5128689;27;20042;-61
2021/05/15 10:40:20;;;;;;;44.53;36.97;;;13.50;90.30;;;;;;5101167;28;20135;-58
2021/05/15 10:43:00;;;;;;;68.97;56.17;;;13.50;89.40;;;;;;5126824;27;20047;-60
2021/05/15 10:45:34;;;;;;;48.42;40.60;;;13.50;89.30;;;;;;5125113;28;20439;-61
2021/05/15 10:48:22;;;;;;;44.28;36.10;;;13.50;90.00;;;;;;5115751;28;20495;-60
2021/05/15 10:51:01;;;;;;;50.30;42.72;;;13.70;90.10;;;;;;5122640;28;20490;-59
2021/05/15 10:53:32;;;;;;;49.45;36.25;;;13.70;88.20;;;;;;5122138;28;20075;-56
2021/05/15 10:56:14;;;;;;;45.28;40.08;;;13.70;88.70;;;;;;5127545;28;20069;-59
2021/05/15 10:58:45;;;;;;;;;;;13.40;88.50;;;;;;5130311;27;20039;-60
2021/05/15 11:01:14;;;;;;;47.83;39.35;;;13.20;88.50;;;;;;5120970;28;19923;-62
2021/05/15 11:03:43;;;;;;;47.10;36.50;;;13.30;89.60;;;;;;5128712;27;20035;-61
2021/05/15 11:06:18;;;;;;;39.70;34.63;;;13.50;89.80;;;;;;5125123;27;20509;-60
2021/05/15 11:08:56;;;;;;;40.97;34.15;;;14.00;87.90;;;;;;5110677;27;20047;-58
2021/05/15 11:11:38;;;;;;;45.55;34.03;;;14.40;85.30;;;;;;5127423;27;20053;-60
2021/05/15 11:14:43;;;;;;;36.00;32.08;;;14.70;85.30;;;;;;5131938;27;20058;-61
2021/05/15 11:17:24;;;;;;;36.60;31.65;;;15.00;82.40;;;;;;5130792;27;20050;-60
2021/05/15 11:19:50;;;;;;;34.88;31.17;;;15.10;82.40;;;;;;5134247;27;20567;-56
2021/05/15 11:22:17;;;;;;;34.50;31.00;;;15.40;83.80;;;;;;5131680;27;20078;-62
2021/05/15 11:24:56;;;;;;;35.40;31.60;;;15.80;80.30;;;;;;5129204;27;20047;-57
2021/05/15 11:27:23;;;;;;;34.83;31.05;;;16.40;79.50;;;;;;5126172;27;20134;-62
2021/05/15 11:30:09;;;;;;;33.95;30.45;;;16.40;79.80;;;;;;5131762;27;20048;-63
2021/05/15 11:32:35;;;;;;;35.78;31.40;;;17.30;74.70;;;;;;5132774;27;20067;-61
2021/05/15 11:35:03;;;;;;;33.38;29.67;;;17.70;74.30;;;;;;5129145;27;20139;-53
2021/05/15 11:37:29;;;;;;;32.47;29.08;;;18.70;76.80;;;;;;5130430;27;20406;-59
2021/05/15 11:39:57;;;;;;;31.08;27.80;;;18.20;72.30;;;;;;5134316;27;20050;-62
2021/05/15 11:42:28;;;;;;;32.95;29.63;;;17.60;75.10;;;;;;5125549;27;20048;-56
2021/05/15 11:44:55;;;;;;;33.50;29.95;;;17.10;75.20;;;;;;5131505;27;20596;-61
2021/05/15 11:47:23;;;;;;;31.95;28.70;;;16.70;74.80;;;;;;5131494;27;20047;-60
2021/05/15 11:50:00;;;;;;;32.60;29.38;;;16.20;74.80;;;;;;5125547;27;20052;-61
2021/05/15 11:52:34;;;;;;;32.10;28.67;;;15.90;75.80;;;;;;5126449;27;20096;-60
2021/05/15 11:55:04;;;;;;;29.45;26.52;;;15.70;75.60;;;;;;5129298;27;20444;-60
2021/05/15 11:57:30;;;;;;;29.95;26.90;;;15.70;76.00;;;;;;5130587;27;20410;-57
2021/05/15 12:00:12;;;;;;;29.48;26.38;;;15.80;76.50;;;;;;5125368;27;20043;-61
2021/05/15 12:02:46;;;;;;;30.95;27.20;;;16.00;74.00;;;;;;5112530;27;20151;-60
2021/05/15 12:05:19;;;;;;;31.27;27.88;;;16.70;72.10;;;;;;5127078;27;20046;-62
2021/05/15 12:07:47;;;;;;;29.70;26.55;;;17.50;69.40;;;;;;5105647;27;20063;-60
2021/05/15 12:10:17;;;;;;;28.38;25.30;;;18.20;68.20;;;;;;5121955;27;20047;-61
2021/05/15 12:12:56;;;;;;;29.15;26.10;;;18.60;66.70;;;;;;5128718;27;20074;-63
2021/05/15 12:15:24;;;;;;;29.88;26.67;;;18.10;63.50;;;;;;5115743;27;20071;-60
2021/05/15 12:17:50;;;;;;;29.27;26.30;;;18.20;67.40;;;;;;5120330;27;20071;-59
2021/05/15 12:20:40;;;;;;;32.90;29.38;;;18.30;63.40;;;;;;5130020;27;20043;-54
2021/05/15 12:23:20;;;;;;;29.83;26.70;;;18.60;61.60;;;;;;5131017;27;20061;-57
2021/05/15 12:26:04;;;;;;;32.83;29.30;;;18.50;61.10;;;;;;5127037;27;20050;-57
2021/05/15 12:28:46;;;;;;;28.90;25.90;;;17.80;62.50;;;;;;5129984;27;20039;-56
2021/05/15 12:31:22;;;;;;;28.30;25.40;;;17.90;64.90;;;;;;5130059;27;20043;-55
2021/05/15 12:33:49;;;;;;;28.05;24.95;;;17.40;65.30;;;;;;5130021;27;20043;-54
2021/05/15 12:36:21;;;;;;;26.50;23.70;;;17.20;67.00;;;;;;5129607;27;20444;-55
2021/05/15 12:38:55;;;;;;;24.30;21.90;;;17.60;64.40;;;;;;5130893;27;20047;-55
2021/05/15 12:41:29;;;;;;;25.13;21.45;;;18.20;61.80;;;;;;5128683;27;20074;-56
2021/05/15 12:44:01;;;;;;;24.65;22.05;;;18.70;59.80;;;;;;5128266;27;20043;-55
2021/05/15 12:46:29;;;;;;;22.77;20.55;;;18.20;59.30;;;;;;5134823;27;20039;-55
2021/05/15 12:49:02;;;;;;;22.15;19.80;;;18.80;60.20;;;;;;5132163;27;20153;-55